Time;durP1;ratioP1;P1;durP2;ratioP2;P2;SDS_P1;SDS_P2;PMS_P1;PMS_P2;Temp;Humidity;BMP_temperature;BMP_pressure;BME280_temperature;BME280_humidity;BME280_pressure;Samples;Min_cycle;Max_cycle;Signal;HPM_P1;HPM_P2
2021/12/16 00:08:44;;;;;;;69.30;38.40;;;10.80;99.90;;;;;;5036421;28;20026;-80
2021/12/16 00:11:24;;;;;;;70.88;38.40;;;10.80;99.90;;;;;;5036387;28;20044;-81
2021/12/16 00:31:15;;;;;;;70.88;39.55;;;10.80;99.90;;;;;;5044416;28;20102;-81
2021/12/16 00:33:35;;;;;;;71.97;40.40;;;10.70;99.90;;;;;;5041205;28;20033;-81
2021/12/16 00:36:02;;;;;;;73.57;38.95;;;10.70;99.90;;;;;;5048035;28;20029;-81
2021/12/16 00:38:28;;;;;;;68.72;37.25;;;10.70;99.90;;;;;;5037787;28;20040;-81
2021/12/16 00:40:55;;;;;;;79.68;41.90;;;10.70;99.90;;;;;;5041518;28;20030;-81
2021/12/16 00:43:49;;;;;;;75.30;40.65;;;10.70;99.90;;;;;;5044167;28;20025;-81
2021/12/16 00:54:13;;;;;;;75.38;40.92;;;10.60;99.90;;;;;;5043874;28;20078;-83
2021/12/16 00:56:40;;;;;;;80.63;40.33;;;10.60;99.90;;;;;;5041045;28;20092;-83
2021/12/16 00:59:08;;;;;;;83.25;38.67;;;10.60;99.90;;;;;;5042763;28;20037;-83
2021/12/16 01:07:24;;;;;;;78.72;39.28;;;10.50;99.90;;;;;;5036960;28;20087;-81
2021/12/16 01:34:28;;;;;;;70.57;38.50;;;10.50;99.90;;;;;;5042421;28;20108;-80
2021/12/16 01:50:10;;;;;;;77.70;39.42;;;10.70;99.90;;;;;;5047409;28;20120;-80
2021/12/16 01:55:29;;;;;;;76.68;39.38;;;10.70;99.90;;;;;;5045482;28;20075;-80
2021/12/16 01:58:10;;;;;;;81.20;41.42;;;10.70;99.90;;;;;;5040312;28;20384;-80
2021/12/16 02:01:09;;;;;;;84.93;44.25;;;10.70;99.90;;;;;;5047417;28;20055;-82
2021/12/16 02:03:42;;;;;;;83.43;43.22;;;10.70;99.90;;;;;;5042591;28;20033;-81
2021/12/16 02:08:51;;;;;;;80.13;43.00;;;10.70;99.90;;;;;;5041975;28;20048;-81
2021/12/16 02:11:37;;;;;;;74.40;40.95;;;10.70;99.90;;;;;;5044197;28;20036;-81
2021/12/16 02:28:14;;;;;;;73.03;37.67;;;10.70;99.90;;;;;;4978950;28;20038;-80
2021/12/16 02:35:44;;;;;;;76.57;38.60;;;10.80;99.90;;;;;;5021324;28;20384;-79
2021/12/16 02:38:13;;;;;;;68.18;37.90;;;10.80;99.90;;;;;;5025506;28;20026;-78
2021/12/16 02:40:39;;;;;;;70.70;38.08;;;10.80;99.90;;;;;;5038849;28;20592;-79
2021/12/16 02:43:28;;;;;;;67.72;38.65;;;10.80;99.90;;;;;;5051461;28;20025;-79
2021/12/16 02:48:41;;;;;;;67.32;37.40;;;10.80;99.90;;;;;;5035306;28;20448;-80
2021/12/16 02:51:10;;;;;;;62.83;37.00;;;10.90;99.90;;;;;;5047060;28;20455;-79
2021/12/16 02:53:39;;;;;;;64.28;35.88;;;10.90;99.90;;;;;;5046928;28;20025;-79
2021/12/16 02:56:05;;;;;;;66.63;37.70;;;10.90;99.90;;;;;;5040646;28;20120;-78
2021/12/16 02:58:33;;;;;;;63.90;37.50;;;10.90;99.90;;;;;;5045912;28;20505;-80
2021/12/16 03:01:15;;;;;;;62.08;36.22;;;10.90;99.90;;;;;;5038604;28;20104;-79
2021/12/16 03:03:41;;;;;;;67.90;36.23;;;10.90;99.90;;;;;;5047843;28;20025;-79
2021/12/16 03:06:08;;;;;;;66.22;36.83;;;11.00;99.90;;;;;;5048910;28;20563;-81
2021/12/16 03:08:35;;;;;;;62.10;35.25;;;11.00;99.90;;;;;;5046589;28;20117;-80
2021/12/16 03:16:39;;;;;;;;;;;11.00;99.90;;;;;;5036903;28;20060;-80
2021/12/16 03:19:22;;;;;;;59.40;34.92;;;11.00;99.90;;;;;;5045459;28;19912;-80
2021/12/16 03:21:53;;;;;;;65.13;36.58;;;11.00;99.90;;;;;;5035384;28;20114;-80
2021/12/16 03:24:39;;;;;;;60.78;35.00;;;11.00;99.90;;;;;;5036723;28;20060;-80
2021/12/16 03:35:03;;;;;;;59.53;33.45;;;11.00;99.90;;;;;;5040690;28;20553;-79
2021/12/16 03:37:30;;;;;;;62.35;34.67;;;11.00;99.90;;;;;;5062180;28;20072;-80
2021/12/16 03:40:05;;;;;;;68.65;35.92;;;11.00;99.90;;;;;;5060163;28;20612;-80
2021/12/16 03:42:38;;;;;;;61.53;33.35;;;11.00;99.90;;;;;;5035472;28;20079;-79
2021/12/16 03:46:25;;;;;;;62.92;33.53;;;10.90;99.90;;;;;;5042727;28;20120;-80
2021/12/16 03:47:58;;;;;;;55.53;34.03;;;10.90;99.90;;;;;;5041247;28;20036;-80
2021/12/16 03:50:24;;;;;;;54.80;32.45;;;10.90;99.90;;;;;;5037957;28;20079;-80
2021/12/16 03:52:50;;;;;;;62.15;34.80;;;10.90;99.90;;;;;;5047069;28;20033;-80
2021/12/16 03:55:17;;;;;;;63.92;34.50;;;10.90;99.90;;;;;;5038087;28;20025;-79
2021/12/16 03:57:43;;;;;;;62.78;34.88;;;10.90;99.90;;;;;;5044195;28;20051;-79
2021/12/16 04:00:16;;;;;;;56.17;33.50;;;10.90;99.90;;;;;;5048377;28;20033;-79
2021/12/16 04:02:41;;;;;;;55.22;32.53;;;10.90;99.90;;;;;;5039235;28;20025;-80
2021/12/16 04:05:09;;;;;;;59.03;33.78;;;10.90;99.90;;;;;;5049152;28;20044;-79
2021/12/16 04:07:37;;;;;;;62.50;35.55;;;11.00;99.90;;;;;;5034907;28;20036;-79
2021/12/16 04:10:06;;;;;;;61.17;33.38;;;11.00;99.90;;;;;;5038064;28;20060;-79
2021/12/16 04:12:32;;;;;;;52.17;32.42;;;10.90;99.90;;;;;;5032041;28;20053;-80
2021/12/16 04:15:00;;;;;;;66.95;35.25;;;10.90;99.90;;;;;;5043808;28;20025;-78
2021/12/16 04:17:29;;;;;;;58.28;32.58;;;10.90;99.90;;;;;;5043377;28;20037;-79
2021/12/16 04:19:56;;;;;;;56.08;32.30;;;11.00;99.90;;;;;;5034739;28;20053;-79
2021/12/16 04:22:30;;;;;;;60.50;32.40;;;11.00;99.90;;;;;;5043754;28;20025;-78
2021/12/16 04:25:00;;;;;;;51.13;31.90;;;11.00;99.90;;;;;;5037826;28;20021;-79
2021/12/16 04:27:26;;;;;;;59.92;32.13;;;10.90;99.90;;;;;;5031202;28;20117;-79
2021/12/16 04:29:52;;;;;;;62.15;33.83;;;11.00;99.90;;;;;;5036187;28;20108;-79
2021/12/16 04:32:19;;;;;;;64.95;32.67;;;11.00;99.90;;;;;;5047626;28;20033;-79
2021/12/16 04:34:45;;;;;;;59.58;33.92;;;11.00;99.90;;;;;;5069342;28;20057;-79
2021/12/16 04:37:11;;;;;;;62.78;34.10;;;11.00;99.90;;;;;;5049738;28;20036;-79
2021/12/16 04:39:40;;;;;;;65.80;32.90;;;10.90;99.90;;;;;;5046783;28;20021;-79
2021/12/16 04:42:06;;;;;;;61.42;32.97;;;10.80;99.90;;;;;;5036653;28;20033;-79
2021/12/16 04:44:32;;;;;;;64.20;33.17;;;10.80;99.90;;;;;;5039090;28;20453;-79
2021/12/16 04:47:00;;;;;;;72.88;34.70;;;10.80;99.90;;;;;;5034675;28;20164;-79
2021/12/16 04:49:27;;;;;;;66.80;34.53;;;10.80;99.90;;;;;;5032068;28;20061;-80
2021/12/16 04:51:57;;;;;;;64.95;33.92;;;10.70;99.90;;;;;;5035201;28;20029;-80
2021/12/16 04:54:25;;;;;;;68.85;34.85;;;10.70;99.90;;;;;;5032771;28;20083;-80
2021/12/16 04:56:53;;;;;;;62.30;32.65;;;10.70;99.90;;;;;;5037188;28;20113;-79
2021/12/16 04:59:20;;;;;;;64.13;32.63;;;10.70;99.90;;;;;;5033010;28;20025;-79
2021/12/16 05:01:50;;;;;;;59.15;32.47;;;10.80;99.90;;;;;;5034723;28;20044;-80
2021/12/16 05:04:17;;;;;;;64.40;33.30;;;10.70;99.90;;;;;;5046643;28;20025;-78
2021/12/16 05:06:43;;;;;;;61.55;31.92;;;10.70;99.90;;;;;;5037932;28;20076;-79
2021/12/16 05:09:11;;;;;;;65.10;32.58;;;10.70;99.90;;;;;;5045413;28;20026;-79
2021/12/16 05:11:37;;;;;;;65.43;33.33;;;10.80;99.90;;;;;;5036482;28;20500;-78
2021/12/16 05:14:05;;;;;;;67.18;34.08;;;10.80;99.90;;;;;;5044794;28;20063;-78
2021/12/16 05:16:31;;;;;;;61.45;34.03;;;10.90;99.90;;;;;;5043143;28;20016;-80
2021/12/16 05:18:57;;;;;;;76.55;34.58;;;10.90;99.90;;;;;;5036707;28;20094;-79
2021/12/16 05:27:06;;;;;;;60.15;31.45;;;11.00;99.90;;;;;;5033784;28;20044;-79
2021/12/16 05:29:32;;;;;;;58.45;30.33;;;11.00;99.90;;;;;;5044520;28;20036;-80
2021/12/16 05:31:59;;;;;;;58.70;28.75;;;11.00;99.90;;;;;;5057693;28;20017;-81
2021/12/16 05:34:25;;;;;;;54.88;29.85;;;10.90;99.90;;;;;;5041924;28;20041;-79
2021/12/16 05:36:51;;;;;;;53.63;28.67;;;10.90;99.90;;;;;;5025762;28;20037;-79
2021/12/16 05:39:17;;;;;;;60.90;30.25;;;10.90;99.90;;;;;;5018021;28;20091;-79
2021/12/16 05:41:44;;;;;;;50.63;27.30;;;10.90;99.90;;;;;;5027863;28;20022;-79
2021/12/16 05:44:10;;;;;;;54.92;28.60;;;10.90;99.90;;;;;;5024025;28;20064;-79
2021/12/16 05:46:37;;;;;;;55.05;29.10;;;10.90;99.90;;;;;;5024195;28;20030;-78
2021/12/16 05:49:06;;;;;;;56.78;28.20;;;10.90;99.90;;;;;;5039273;28;20025;-78
2021/12/16 05:51:34;;;;;;;54.03;28.38;;;10.90;99.90;;;;;;5050328;28;20104;-78
2021/12/16 05:54:02;;;;;;;50.40;26.73;;;10.90;99.90;;;;;;5052447;28;20021;-78
2021/12/16 05:56:28;;;;;;;52.35;27.10;;;10.90;99.90;;;;;;5041364;28;20112;-79
2021/12/16 05:58:54;;;;;;;48.22;26.25;;;10.90;99.90;;;;;;5038671;28;20160;-79
2021/12/16 06:01:24;;;;;;;49.88;26.27;;;10.90;99.90;;;;;;5049397;28;20036;-79
2021/12/16 06:03:50;;;;;;;46.28;26.63;;;10.80;99.90;;;;;;5039445;28;20022;-78
2021/12/16 06:06:16;;;;;;;47.78;26.50;;;10.80;99.90;;;;;;5042453;28;20503;-80
2021/12/16 06:08:43;;;;;;;51.53;27.45;;;10.70;99.90;;;;;;5045093;28;20053;-80
2021/12/16 06:11:24;;;;;;;48.67;26.48;;;10.70;99.90;;;;;;5039792;28;20036;-80
2021/12/16 06:27:32;;;;;;;46.83;25.50;;;10.80;99.90;;;;;;5054047;28;20059;-78
2021/12/16 06:29:58;;;;;;;54.08;23.88;;;10.70;99.90;;;;;;5063760;28;20040;-81
2021/12/16 06:32:25;;;;;;;42.80;24.10;;;10.50;99.90;;;;;;5048899;28;20033;-81
2021/12/16 06:34:53;;;;;;;44.17;24.70;;;10.50;99.90;;;;;;5048094;28;20111;-83
2021/12/16 06:37:18;;;;;;;45.08;24.25;;;10.60;99.90;;;;;;5047135;28;20025;-82
2021/12/16 06:39:44;;;;;;;40.38;24.30;;;10.60;99.90;;;;;;5038194;28;20052;-88
2021/12/16 06:42:11;;;;;;;32.33;17.85;;;10.60;99.90;;;;;;5044257;28;20104;-82
2021/12/16 06:44:43;;;;;;;46.15;23.73;;;10.70;99.90;;;;;;5042349;28;20025;-80
2021/12/16 06:47:14;;;;;;;41.70;23.52;;;10.70;99.90;;;;;;5043363;28;20037;-80
2021/12/16 06:49:43;;;;;;;43.63;23.50;;;10.70;99.90;;;;;;5050199;28;20044;-81
2021/12/16 06:52:12;;;;;;;52.42;25.23;;;10.80;99.90;;;;;;5047051;28;20562;-81
2021/12/16 06:57:52;;;;;;;38.13;23.27;;;10.80;99.90;;;;;;5022843;28;20120;-81
2021/12/16 07:00:31;;;;;;;40.22;22.80;;;10.90;99.90;;;;;;5025352;28;20037;-81
2021/12/16 07:05:36;;;;;;;38.95;23.95;;;11.00;99.90;;;;;;5045052;28;20431;-80
2021/12/16 07:08:04;;;;;;;42.67;20.98;;;11.10;99.90;;;;;;5044069;28;20029;-79
2021/12/16 07:10:30;;;;;;;28.80;17.63;;;11.10;99.90;;;;;;5055002;28;20032;-78
2021/12/16 07:12:58;;;;;;;34.78;17.27;;;11.20;99.90;;;;;;5047419;28;20034;-78
2021/12/16 07:15:27;;;;;;;31.60;18.80;;;11.30;99.90;;;;;;5040154;28;20025;-78
2021/12/16 07:17:55;;;;;;;44.58;24.35;;;11.30;99.90;;;;;;5045967;28;20032;-78
2021/12/16 07:20:26;;;;;;;41.75;23.98;;;11.40;99.90;;;;;;5045581;28;20070;-78
2021/12/16 07:22:52;;;;;;;32.97;21.77;;;11.30;99.90;;;;;;5050148;28;20069;-78
2021/12/16 07:25:18;;;;;;;34.55;22.05;;;11.30;99.90;;;;;;5058127;28;20029;-77
2021/12/16 07:27:44;;;;;;;46.50;23.45;;;11.40;99.90;;;;;;5058518;28;20372;-78
2021/12/16 07:30:13;;;;;;;40.80;21.92;;;11.40;99.90;;;;;;5039334;28;20032;-78
2021/12/16 07:32:39;;;;;;;32.53;18.85;;;11.40;99.90;;;;;;5049487;28;20029;-78
2021/12/16 07:35:09;;;;;;;30.17;19.20;;;11.40;99.90;;;;;;5047087;28;20033;-78
2021/12/16 07:37:35;;;;;;;35.72;19.58;;;11.50;99.90;;;;;;5044661;28;20040;-78
2021/12/16 07:40:06;;;;;;;30.90;19.67;;;11.50;99.90;;;;;;5038388;28;20025;-78
2021/12/16 07:42:43;;;;;;;36.72;20.02;;;11.50;99.90;;;;;;5037101;28;20029;-78
2021/12/16 07:45:10;;;;;;;33.65;19.85;;;11.50;99.90;;;;;;5038084;28;20044;-79
2021/12/16 07:47:36;;;;;;;37.33;21.00;;;11.40;99.90;;;;;;5044910;28;20028;-79
2021/12/16 07:50:02;;;;;;;30.80;17.60;;;11.40;99.90;;;;;;5041779;28;20021;-80
2021/12/16 07:52:28;;;;;;;35.25;19.92;;;11.40;99.90;;;;;;5050732;28;20380;-80
2021/12/16 07:54:54;;;;;;;34.58;22.02;;;11.40;99.90;;;;;;5037522;28;20021;-79
2021/12/16 07:57:19;;;;;;;35.97;21.50;;;11.50;99.90;;;;;;5044168;28;20036;-79
2021/12/16 07:59:47;;;;;;;69.97;21.42;;;11.50;99.90;;;;;;5053794;28;20021;-77
2021/12/16 08:02:12;;;;;;;48.10;21.80;;;11.50;99.90;;;;;;5048886;28;20036;-78
2021/12/16 08:04:43;;;;;;;34.97;20.50;;;11.50;99.90;;;;;;5033568;28;20026;-78
2021/12/16 08:07:13;;;;;;;34.35;22.05;;;11.50;99.90;;;;;;5034006;28;20029;-77
2021/12/16 08:09:40;;;;;;;32.75;20.52;;;11.50;99.90;;;;;;5033578;28;20562;-77
2021/12/16 08:12:09;;;;;;;48.95;19.20;;;11.40;99.90;;;;;;5033521;28;20144;-78
2021/12/16 08:14:34;;;;;;;49.92;20.70;;;11.40;99.90;;;;;;5033318;28;20060;-78
2021/12/16 08:17:00;;;;;;;52.50;20.70;;;11.30;99.90;;;;;;5034053;28;20033;-80
2021/12/16 08:19:26;;;;;;;59.22;20.05;;;11.40;99.90;;;;;;5036046;28;20469;-79
2021/12/16 08:21:52;;;;;;;55.40;20.50;;;11.30;99.90;;;;;;5041139;28;20021;-79
2021/12/16 08:24:18;;;;;;;50.22;21.63;;;11.20;99.90;;;;;;5053185;28;20053;-80
2021/12/16 08:26:50;;;;;;;59.97;20.05;;;11.20;99.90;;;;;;5034396;28;20059;-78
2021/12/16 08:29:16;;;;;;;24.25;16.73;;;11.10;99.90;;;;;;5033556;28;20026;-78
2021/12/16 08:31:42;;;;;;;28.25;18.50;;;11.20;99.90;;;;;;5033668;28;20031;-78
2021/12/16 08:34:10;;;;;;;133.13;20.90;;;11.20;99.90;;;;;;5033275;28;20021;-78
2021/12/16 08:36:35;;;;;;;80.20;20.17;;;11.20;99.90;;;;;;5033703;28;20354;-78
2021/12/16 08:39:07;;;;;;;35.20;20.67;;;11.10;99.90;;;;;;5033808;28;20083;-80
2021/12/16 08:41:36;;;;;;;33.22;21.25;;;11.10;99.90;;;;;;5033982;28;20021;-80
2021/12/16 08:44:03;;;;;;;35.17;22.20;;;11.10;99.90;;;;;;5033395;28;20504;-81
2021/12/16 08:46:33;;;;;;;54.88;21.30;;;11.00;99.90;;;;;;5032995;28;20558;-82
2021/12/16 08:48:59;;;;;;;30.75;19.65;;;11.10;99.90;;;;;;5037125;28;20109;-81
2021/12/16 08:51:30;;;;;;;72.03;19.23;;;11.10;99.90;;;;;;5037349;28;20108;-81
2021/12/16 08:53:57;;;;;;;66.18;18.98;;;11.10;99.90;;;;;;5037608;28;20033;-81
2021/12/16 08:56:25;;;;;;;83.47;19.55;;;11.10;99.90;;;;;;5037662;28;20461;-79
2021/12/16 08:58:51;;;;;;;32.15;19.45;;;11.20;99.90;;;;;;5037492;28;20026;-79
2021/12/16 09:01:23;;;;;;;31.52;17.27;;;11.20;99.90;;;;;;5037030;28;20362;-78
2021/12/16 09:03:54;;;;;;;28.42;16.67;;;11.20;99.90;;;;;;5042373;28;20067;-78
2021/12/16 09:06:20;;;;;;;28.08;19.00;;;11.20;99.90;;;;;;5047643;28;20106;-79
2021/12/16 09:08:46;;;;;;;40.38;18.08;;;11.20;99.90;;;;;;5051196;28;20080;-75
2021/12/16 09:11:18;;;;;;;42.80;18.58;;;11.20;99.90;;;;;;5041226;28;20053;-77
2021/12/16 09:13:45;;;;;;;26.73;17.38;;;11.20;99.90;;;;;;5048061;28;20065;-78
2021/12/16 09:16:17;;;;;;;36.83;17.77;;;11.20;99.90;;;;;;5049808;28;20018;-72
2021/12/16 09:18:43;;;;;;;29.90;19.63;;;11.20;99.90;;;;;;5056411;28;20439;-77
2021/12/16 09:21:16;;;;;;;27.45;19.42;;;11.20;99.90;;;;;;5054761;28;20032;-77
2021/12/16 09:23:44;;;;;;;149.35;19.63;;;11.20;99.90;;;;;;5023104;28;20045;-78
2021/12/16 09:26:10;;;;;;;35.55;18.02;;;11.10;99.90;;;;;;5020442;28;20511;-78
2021/12/16 09:28:36;;;;;;;75.80;18.75;;;11.10;99.90;;;;;;5033539;28;20018;-78
2021/12/16 09:31:04;;;;;;;110.00;20.45;;;11.10;99.90;;;;;;5021363;28;20473;-79
2021/12/16 09:33:30;;;;;;;77.40;19.42;;;11.10;99.90;;;;;;5023746;28;20096;-79
2021/12/16 09:35:58;;;;;;;62.47;18.88;;;11.00;99.90;;;;;;5048054;28;20029;-77
2021/12/16 09:38:25;;;;;;;56.00;18.77;;;11.00;99.90;;;;;;5043447;28;20049;-78
2021/12/16 09:40:54;;;;;;;52.22;18.77;;;11.00;99.90;;;;;;5040261;28;20025;-78
2021/12/16 09:43:32;;;;;;;84.55;17.73;;;11.00;99.90;;;;;;5048155;28;20025;-79
2021/12/16 09:46:02;;;;;;;90.78;17.05;;;11.00;99.90;;;;;;5039496;28;20120;-80
2021/12/16 09:48:28;;;;;;;43.13;16.58;;;11.00;99.90;;;;;;5036903;28;20120;-80
2021/12/16 09:50:54;;;;;;;26.15;17.08;;;10.90;99.90;;;;;;5044266;28;20476;-78
2021/12/16 09:53:20;;;;;;;122.82;17.77;;;10.90;99.90;;;;;;5050287;28;20040;-81
2021/12/16 09:55:51;;;;;;;37.85;16.50;;;10.90;99.90;;;;;;5041338;28;20040;-81
2021/12/16 09:58:16;;;;;;;115.82;17.50;;;10.90;99.90;;;;;;5035989;28;20423;-81
2021/12/16 10:00:43;;;;;;;70.13;18.13;;;11.00;99.90;;;;;;5037443;28;20032;-80
2021/12/16 10:03:09;;;;;;;47.83;16.80;;;11.00;99.90;;;;;;5049860;28;20754;-77
2021/12/16 10:05:35;;;;;;;60.25;16.15;;;11.00;99.90;;;;;;5043070;28;20112;-78
2021/12/16 10:08:05;;;;;;;31.98;14.15;;;11.10;99.90;;;;;;5041806;28;20025;-78
2021/12/16 10:10:32;;;;;;;44.33;16.05;;;11.10;99.90;;;;;;5044562;28;20025;-78
2021/12/16 10:13:01;;;;;;;80.25;16.52;;;11.10;99.90;;;;;;5039905;28;20064;-83
2021/12/16 10:18:02;;;;;;;28.60;16.27;;;11.10;99.90;;;;;;5053084;28;20029;-79
2021/12/16 10:20:49;;;;;;;48.38;16.77;;;11.20;99.90;;;;;;5041266;28;20117;-79
2021/12/16 10:23:19;;;;;;;64.88;16.58;;;11.20;99.90;;;;;;5034913;28;20552;-79
2021/12/16 10:25:49;;;;;;;151.98;18.23;;;11.30;99.90;;;;;;5037811;28;20051;-79
2021/12/16 10:28:23;;;;;;;81.43;17.85;;;11.20;99.90;;;;;;5036980;28;20116;-80
2021/12/16 10:31:02;;;;;;;75.88;17.25;;;11.30;99.90;;;;;;5043084;28;20058;-80
2021/12/16 10:33:36;;;;;;;95.57;18.13;;;11.30;99.90;;;;;;5043694;28;20021;-80
2021/12/16 10:36:14;;;;;;;79.82;18.45;;;11.30;99.90;;;;;;5042050;28;20056;-79
2021/12/16 10:38:47;;;;;;;106.97;17.27;;;11.30;99.90;;;;;;5032302;28;20067;-79
2021/12/16 10:41:21;;;;;;;71.15;17.25;;;11.20;99.90;;;;;;5037302;28;20753;-80
2021/12/16 10:43:52;;;;;;;88.32;16.17;;;11.20;99.90;;;;;;5036631;28;20108;-79
2021/12/16 10:46:21;;;;;;;94.55;17.02;;;11.20;99.90;;;;;;5041628;28;20039;-79
2021/12/16 10:48:51;;;;;;;37.78;16.58;;;11.10;99.90;;;;;;5036935;28;20031;-79
2021/12/16 10:51:25;;;;;;;79.50;17.90;;;11.20;99.90;;;;;;5036945;28;20033;-79
2021/12/16 10:54:02;;;;;;;35.58;16.52;;;11.20;99.90;;;;;;5041133;28;20473;-80
2021/12/16 10:56:39;;;;;;;132.30;18.60;;;11.20;99.90;;;;;;5049054;28;20092;-78
2021/12/16 10:59:08;;;;;;;53.38;17.30;;;11.20;99.90;;;;;;5043562;28;20036;-79
2021/12/16 11:02:00;;;;;;;73.88;18.55;;;11.10;99.90;;;;;;5036143;28;20101;-78
2021/12/16 11:04:35;;;;;;;80.45;20.42;;;11.10;99.90;;;;;;5033392;28;20026;-81
2021/12/16 11:07:15;;;;;;;114.38;19.98;;;11.10;99.90;;;;;;5035849;28;20120;-80
2021/12/16 11:09:41;;;;;;;40.97;20.40;;;11.10;99.90;;;;;;5036630;28;20101;-82
2021/12/16 11:12:17;;;;;;;117.65;20.63;;;11.10;99.90;;;;;;5060506;28;20109;-76
2021/12/16 11:14:51;;;;;;;47.03;19.30;;;11.10;99.90;;;;;;5070027;28;20039;-82
2021/12/16 11:17:18;;;;;;;45.47;20.42;;;11.10;99.90;;;;;;5036807;28;20025;-79
2021/12/16 11:19:56;;;;;;;40.47;20.27;;;11.10;99.90;;;;;;5035371;28;20112;-82
2021/12/16 11:22:34;;;;;;;52.60;20.17;;;11.10;99.90;;;;;;5049215;28;20095;-82
2021/12/16 11:25:17;;;;;;;115.28;21.27;;;11.10;99.90;;;;;;5052071;28;20024;-78
2021/12/16 11:27:46;;;;;;;142.70;21.33;;;11.00;99.90;;;;;;5047117;28;20105;-85
2021/12/16 11:30:47;;;;;;;60.13;19.35;;;11.00;99.90;;;;;;5033926;28;20117;-82
2021/12/16 11:33:21;;;;;;;64.30;18.00;;;10.90;99.90;;;;;;4993224;28;20058;-83
2021/12/16 11:35:57;;;;;;;116.45;19.48;;;11.00;99.90;;;;;;5042240;28;20024;-83
2021/12/16 11:38:34;;;;;;;118.93;20.00;;;10.90;99.90;;;;;;5037467;28;20469;-81
2021/12/16 11:41:08;;;;;;;95.20;19.20;;;10.90;99.90;;;;;;5035161;28;20120;-82
2021/12/16 11:43:36;;;;;;;60.83;18.58;;;10.90;99.90;;;;;;5037705;28;20055;-82
2021/12/16 11:46:05;;;;;;;90.25;19.65;;;10.90;99.90;;;;;;5037841;28;20420;-88
2021/12/16 11:48:35;;;;;;;39.28;19.73;;;10.90;99.90;;;;;;5035779;28;20029;-82
2021/12/16 11:51:16;;;;;;;131.38;19.38;;;10.90;99.90;;;;;;5039042;28;20434;-81
2021/12/16 11:53:52;;;;;;;101.30;19.08;;;10.90;99.90;;;;;;5047808;28;20038;-83
2021/12/16 11:56:20;;;;;;;77.75;17.58;;;10.90;99.90;;;;;;5045783;28;20052;-83
2021/12/16 11:58:47;;;;;;;37.53;16.70;;;10.90;99.90;;;;;;5036012;28;20064;-80
2021/12/16 12:01:23;;;;;;;51.78;17.60;;;10.90;99.90;;;;;;5038475;28;20499;-77
2021/12/16 12:03:50;;;;;;;40.78;16.25;;;11.00;99.90;;;;;;5050416;28;20024;-78
2021/12/16 12:06:23;;;;;;;27.83;16.92;;;11.00;99.90;;;;;;5050490;28;20462;-80
2021/12/16 12:08:51;;;;;;;27.50;16.13;;;10.90;99.90;;;;;;5042856;28;20013;-79
2021/12/16 12:11:21;;;;;;;28.95;18.00;;;11.00;99.90;;;;;;5064558;28;20033;-81
2021/12/16 12:13:51;;;;;;;37.60;17.98;;;11.00;99.90;;;;;;5040083;28;20105;-79
2021/12/16 12:16:21;;;;;;;33.15;18.50;;;11.00;99.90;;;;;;5037791;28;20054;-80
2021/12/16 12:18:49;;;;;;;41.20;18.85;;;11.10;99.90;;;;;;5024601;28;20029;-80
2021/12/16 12:21:19;;;;;;;29.60;17.40;;;11.00;99.90;;;;;;5024772;28;20025;-81
2021/12/16 12:23:47;;;;;;;28.42;15.73;;;11.00;99.90;;;;;;5018564;28;20025;-80
2021/12/16 12:26:16;;;;;;;26.38;16.20;;;11.00;99.90;;;;;;5016452;28;20046;-82
2021/12/16 12:28:43;;;;;;;32.85;18.38;;;11.10;99.90;;;;;;5027466;28;20041;-80
2021/12/16 12:31:09;;;;;;;47.15;16.67;;;11.10;99.90;;;;;;5026498;28;20080;-85
2021/12/16 12:33:34;;;;;;;21.83;15.10;;;11.10;99.90;;;;;;5037194;28;20057;-84
2021/12/16 12:36:01;;;;;;;43.33;16.98;;;11.20;99.90;;;;;;5040481;28;20443;-84
2021/12/16 12:38:28;;;;;;;35.75;16.10;;;11.20;99.90;;;;;;5048144;28;20055;-82
2021/12/16 12:40:53;;;;;;;35.33;16.52;;;11.20;99.90;;;;;;5046981;28;20381;-84
2021/12/16 12:43:19;;;;;;;25.08;15.85;;;11.20;99.90;;;;;;5044486;28;20031;-84
2021/12/16 12:45:45;;;;;;;53.17;17.85;;;11.30;99.90;;;;;;5042798;28;20060;-83
2021/12/16 12:48:14;;;;;;;29.02;17.25;;;11.30;99.90;;;;;;5043140;28;20445;-80
2021/12/16 12:50:42;;;;;;;30.65;17.00;;;11.30;99.90;;;;;;5038480;28;20049;-81
2021/12/16 12:53:24;;;;;;;33.53;17.63;;;11.30;99.90;;;;;;5036564;28;20057;-80
2021/12/16 12:55:54;;;;;;;36.70;17.75;;;11.30;99.90;;;;;;5033083;28;20033;-82
2021/12/16 12:58:23;;;;;;;28.45;18.38;;;11.20;99.90;;;;;;5037325;28;20025;-81
2021/12/16 13:00:55;;;;;;;33.45;18.02;;;11.20;99.90;;;;;;5034130;28;20026;-81
2021/12/16 13:03:35;;;;;;;28.70;17.08;;;11.10;99.90;;;;;;5041928;28;20472;-81
2021/12/16 13:06:08;;;;;;;76.35;18.77;;;11.20;99.90;;;;;;5060810;28;20026;-82
2021/12/16 13:08:46;;;;;;;30.65;16.25;;;11.20;99.90;;;;;;5058980;28;20040;-81
2021/12/16 13:11:18;;;;;;;53.33;17.92;;;11.20;99.90;;;;;;5045664;28;20041;-80
2021/12/16 13:14:24;;;;;;;44.00;17.10;;;11.30;99.90;;;;;;5045688;28;20041;-81
2021/12/16 13:28:02;;;;;;;35.63;15.52;;;11.40;99.90;;;;;;5035281;28;20061;-82
2021/12/16 13:30:38;;;;;;;34.63;18.23;;;11.40;99.90;;;;;;5032002;28;20030;-79
2021/12/16 13:33:19;;;;;;;29.15;16.63;;;11.40;99.90;;;;;;5035092;28;20052;-79
2021/12/16 13:35:51;;;;;;;34.10;17.80;;;11.40;99.90;;;;;;5037125;28;20040;-79
2021/12/16 13:38:19;;;;;;;27.30;17.00;;;11.40;99.90;;;;;;5039217;28;20393;-83
2021/12/16 13:40:49;;;;;;;31.45;16.10;;;11.50;99.90;;;;;;5039522;28;20107;-82
2021/12/16 13:43:19;;;;;;;91.53;19.92;;;11.50;99.90;;;;;;5040155;28;20017;-79
2021/12/16 13:45:59;;;;;;;38.15;17.70;;;11.40;99.90;;;;;;5043753;28;20140;-85
2021/12/16 14:03:26;;;;;;;42.10;18.55;;;11.30;99.90;;;;;;5060309;28;20068;-79
2021/12/16 14:06:20;;;;;;;31.00;17.37;;;11.20;99.90;;;;;;5038205;28;20036;-77
2021/12/16 14:08:54;;;;;;;66.22;17.90;;;11.20;99.90;;;;;;5037172;28;20431;-79
2021/12/16 14:17:57;;;;;;;41.45;18.70;;;11.20;99.90;;;;;;5042968;28;20070;-80
2021/12/16 14:23:26;;;;;;;33.72;19.02;;;11.20;99.90;;;;;;5038676;28;20032;-78
2021/12/16 14:31:58;;;;;;;33.30;17.95;;;11.20;99.90;;;;;;5042496;28;20115;-77
2021/12/16 14:50:16;;;;;;;34.92;18.75;;;11.30;99.90;;;;;;5047196;28;20025;-76
2021/12/16 14:52:42;;;;;;;40.00;20.83;;;11.30;99.90;;;;;;5049983;28;20098;-76
2021/12/16 14:55:11;;;;;;;30.90;19.65;;;11.30;99.90;;;;;;5038224;28;20056;-77
2021/12/16 14:57:43;;;;;;;46.67;19.42;;;11.20;99.90;;;;;;5047092;28;20095;-75
2021/12/16 15:00:15;;;;;;;28.65;19.10;;;11.20;99.90;;;;;;5043410;28;20373;-76
2021/12/16 15:02:43;;;;;;;83.22;19.40;;;11.20;99.90;;;;;;5051216;28;20062;-76
2021/12/16 15:05:30;;;;;;;38.05;19.50;;;11.20;99.90;;;;;;5048300;28;20041;-76
2021/12/16 15:08:05;;;;;;;33.58;18.55;;;11.20;99.90;;;;;;5035463;28;20033;-76
2021/12/16 15:10:31;;;;;;;45.42;20.00;;;11.20;99.90;;;;;;5037327;28;20025;-77
2021/12/16 15:13:09;;;;;;;32.63;20.00;;;11.20;99.90;;;;;;5034109;28;20103;-75
2021/12/16 15:42:49;;;;;;;37.25;23.02;;;11.20;99.90;;;;;;5046066;28;20108;-76
2021/12/16 15:45:22;;;;;;;40.05;22.73;;;11.10;99.90;;;;;;5039819;28;20029;-75
2021/12/16 15:48:02;;;;;;;35.92;20.52;;;11.10;99.90;;;;;;5033780;28;20035;-76
2021/12/16 15:50:46;;;;;;;38.55;21.52;;;11.10;99.90;;;;;;5036825;28;20499;-76
2021/12/16 15:53:18;;;;;;;35.15;21.55;;;11.20;99.90;;;;;;5033865;28;20021;-80
2021/12/16 15:55:56;;;;;;;34.20;21.73;;;11.20;99.90;;;;;;5058735;28;20033;-80
2021/12/16 15:58:26;;;;;;;44.08;21.88;;;11.20;99.90;;;;;;5055018;28;20029;-82
2021/12/16 16:01:00;;;;;;;49.35;20.05;;;11.20;99.90;;;;;;5035216;28;20100;-83
2021/12/16 16:03:27;;;;;;;68.78;21.40;;;11.20;99.90;;;;;;5043256;28;20021;-83
2021/12/16 16:05:56;;;;;;;93.03;23.58;;;11.20;99.90;;;;;;5044732;28;20037;-83
2021/12/16 16:08:24;;;;;;;47.88;22.45;;;11.00;99.90;;;;;;5050051;28;20060;-84
2021/12/16 16:10:59;;;;;;;34.88;21.45;;;11.00;99.90;;;;;;5038268;28;20025;-89
2021/12/16 16:13:28;;;;;;;55.28;21.73;;;11.00;99.90;;;;;;5041198;28;20049;-85
2021/12/16 16:15:56;;;;;;;36.90;20.77;;;10.90;99.90;;;;;;5046603;28;20483;-86
2021/12/16 16:18:34;;;;;;;43.58;21.38;;;11.00;99.90;;;;;;5040291;28;20373;-86
2021/12/16 16:21:10;;;;;;;41.50;21.27;;;11.00;99.90;;;;;;5035571;28;20108;-88
2021/12/16 16:23:39;;;;;;;34.65;21.83;;;11.00;99.90;;;;;;5046565;28;20075;-89
2021/12/16 16:26:07;;;;;;;28.80;19.73;;;11.00;99.90;;;;;;5036039;28;20051;-85
2021/12/16 16:28:35;;;;;;;30.98;19.67;;;11.00;99.90;;;;;;5042693;28;20400;-84
2021/12/16 16:31:01;;;;;;;34.58;20.90;;;11.00;99.90;;;;;;5043522;28;20041;-86